sensor_id;sensor_type;location;lat;lon;timestamp;temperature;humidity
53599;DHT22;39485;45.702;11.364;2023-05-10T00:02:06;14.20;99.90
53599;DHT22;39485;45.702;11.364;2023-05-10T00:04:32;14.10;99.90
53599;DHT22;39485;45.702;11.364;2023-05-10T00:06:57;14.10;99.90
53599;DHT22;39485;45.702;11.364;2023-05-10T00:09:23;14.10;99.90
53599;DHT22;39485;45.702;11.364;2023-05-10T00:11:49;14.00;99.90
53599;DHT22;39485;45.702;11.364;2023-05-10T00:14:15;14.00;99.90
53599;DHT22;39485;45.702;11.364;2023-05-10T00:16:41;13.90;99.90
53599;DHT22;39485;45.702;11.364;2023-05-10T00:19:06;13.90;99.90
53599;DHT22;39485;45.702;11.364;2023-05-10T00:21:32;13.90;99.90
53599;DHT22;39485;45.702;11.364;2023-05-10T00:23:59;13.90;99.90
53599;DHT22;39485;45.702;11.364;2023-05-10T00:26:25;13.90;99.90
53599;DHT22;39485;45.702;11.364;2023-05-10T00:28:50;13.80;99.90
53599;DHT22;39485;45.702;11.364;2023-05-10T00:31:16;13.80;99.90
53599;DHT22;39485;45.702;11.364;2023-05-10T00:33:42;13.80;99.90
53599;DHT22;39485;45.702;11.364;2023-05-10T00:36:07;13.80;99.90
53599;DHT22;39485;45.702;11.364;2023-05-10T00:38:34;13.80;99.90
53599;DHT22;39485;45.702;11.364;2023-05-10T00:41:00;13.80;99.90
53599;DHT22;39485;45.702;11.364;2023-05-10T00:43:25;13.80;99.90
53599;DHT22;39485;45.702;11.364;2023-05-10T00:45:51;13.70;99.90
53599;DHT22;39485;45.702;11.364;2023-05-10T00:48:17;13.70;99.90
53599;DHT22;39485;45.702;11.364;2023-05-10T00:50:43;13.70;99.90
53599;DHT22;39485;45.702;11.364;2023-05-10T00:53:10;13.70;99.90
53599;DHT22;39485;45.702;11.364;2023-05-10T00:55:36;13.70;99.90
53599;DHT22;39485;45.702;11.364;2023-05-10T00:58:02;13.60;99.90
53599;DHT22;39485;45.702;11.364;2023-05-10T01:00:27;13.60;99.90
53599;DHT22;39485;45.702;11.364;2023-05-10T01:02:54;13.60;99.90
53599;DHT22;39485;45.702;11.364;2023-05-10T01:05:19;13.60;99.90
53599;DHT22;39485;45.702;11.364;2023-05-10T01:07:45;13.60;99.90
53599;DHT22;39485;45.702;11.364;2023-05-10T01:10:11;13.60;99.90
53599;DHT22;39485;45.702;11.364;2023-05-10T01:12:39;13.60;99.90
53599;DHT22;39485;45.702;11.364;2023-05-10T01:15:06;13.60;99.90
53599;DHT22;39485;45.702;11.364;2023-05-10T01:17:34;13.60;99.90
53599;DHT22;39485;45.702;11.364;2023-05-10T01:20:01;13.50;99.90
53599;DHT22;39485;45.702;11.364;2023-05-10T01:28:26;13.50;99.90
53599;DHT22;39485;45.702;11.364;2023-05-10T01:34:23;13.50;99.90
53599;DHT22;39485;45.702;11.364;2023-05-10T01:37:09;13.50;99.90
53599;DHT22;39485;45.702;11.364;2023-05-10T01:42:14;13.40;99.90
53599;DHT22;39485;45.702;11.364;2023-05-10T01:47:22;13.30;99.90
53599;DHT22;39485;45.702;11.364;2023-05-10T01:49:52;13.30;99.90
53599;DHT22;39485;45.702;11.364;2023-05-10T01:52:21;13.30;99.90
53599;DHT22;39485;45.702;11.364;2023-05-10T01:54:59;13.30;99.90
53599;DHT22;39485;45.702;11.364;2023-05-10T01:57:27;13.30;99.90
53599;DHT22;39485;45.702;11.364;2023-05-10T01:59:58;13.20;99.90
53599;DHT22;39485;45.702;11.364;2023-05-10T02:02:26;13.20;99.90
53599;DHT22;39485;45.702;11.364;2023-05-10T02:04:53;13.30;99.90
53599;DHT22;39485;45.702;11.364;2023-05-10T02:07:21;13.20;99.90
53599;DHT22;39485;45.702;11.364;2023-05-10T02:09:47;13.20;99.90
53599;DHT22;39485;45.702;11.364;2023-05-10T02:12:13;13.20;99.90
53599;DHT22;39485;45.702;11.364;2023-05-10T02:14:41;13.20;99.90
53599;DHT22;39485;45.702;11.364;2023-05-10T02:17:08;13.20;99.90
53599;DHT22;39485;45.702;11.364;2023-05-10T02:19:39;13.20;99.90
53599;DHT22;39485;45.702;11.364;2023-05-10T02:22:06;13.10;99.90
53599;DHT22;39485;45.702;11.364;2023-05-10T02:24:34;13.10;99.90
53599;DHT22;39485;45.702;11.364;2023-05-10T02:27:02;13.10;99.90
53599;DHT22;39485;45.702;11.364;2023-05-10T02:29:30;13.10;99.90
53599;DHT22;39485;45.702;11.364;2023-05-10T02:31:57;13.00;99.90
53599;DHT22;39485;45.702;11.364;2023-05-10T02:34:25;13.10;99.90
53599;DHT22;39485;45.702;11.364;2023-05-10T02:36:52;13.10;99.90
53599;DHT22;39485;45.702;11.364;2023-05-10T02:39:19;13.00;99.90
53599;DHT22;39485;45.702;11.364;2023-05-10T02:41:46;13.00;99.90
53599;DHT22;39485;45.702;11.364;2023-05-10T02:44:15;12.90;99.90
53599;DHT22;39485;45.702;11.364;2023-05-10T02:46:43;12.90;99.90
53599;DHT22;39485;45.702;11.364;2023-05-10T02:49:09;12.90;99.90
53599;DHT22;39485;45.702;11.364;2023-05-10T02:51:36;12.80;99.90
53599;DHT22;39485;45.702;11.364;2023-05-10T02:54:09;12.80;99.90
53599;DHT22;39485;45.702;11.364;2023-05-10T02:56:36;12.70;99.90
53599;DHT22;39485;45.702;11.364;2023-05-10T02:59:04;12.80;99.90
53599;DHT22;39485;45.702;11.364;2023-05-10T03:01:30;12.70;99.90
53599;DHT22;39485;45.702;11.364;2023-05-10T03:03:56;12.70;99.90
53599;DHT22;39485;45.702;11.364;2023-05-10T03:06:21;12.70;99.90
53599;DHT22;39485;45.702;11.364;2023-05-10T03:08:47;12.70;99.90
53599;DHT22;39485;45.702;11.364;2023-05-10T03:17:23;12.70;99.90
53599;DHT22;39485;45.702;11.364;2023-05-10T03:19:58;12.70;99.90
53599;DHT22;39485;45.702;11.364;2023-05-10T03:22:40;12.60;99.90
53599;DHT22;39485;45.702;11.364;2023-05-10T03:25:10;12.60;99.90
53599;DHT22;39485;45.702;11.364;2023-05-10T03:27:40;12.60;99.90
53599;DHT22;39485;45.702;11.364;2023-05-10T03:30:09;12.60;99.90
53599;DHT22;39485;45.702;11.364;2023-05-10T03:32:36;12.60;99.90
53599;DHT22;39485;45.702;11.364;2023-05-10T03:35:09;12.60;99.90
53599;DHT22;39485;45.702;11.364;2023-05-10T03:37:35;12.50;99.90
53599;DHT22;39485;45.702;11.364;2023-05-10T03:40:02;12.50;99.90
53599;DHT22;39485;45.702;11.364;2023-05-10T03:42:28;12.40;99.90
53599;DHT22;39485;45.702;11.364;2023-05-10T03:44:53;12.40;99.90
53599;DHT22;39485;45.702;11.364;2023-05-10T03:47:19;12.30;99.90
53599;DHT22;39485;45.702;11.364;2023-05-10T03:49:45;12.30;99.90
53599;DHT22;39485;45.702;11.364;2023-05-10T03:52:11;12.30;99.90
53599;DHT22;39485;45.702;11.364;2023-05-10T03:54:37;12.30;99.90
53599;DHT22;39485;45.702;11.364;2023-05-10T03:57:03;12.30;99.90
53599;DHT22;39485;45.702;11.364;2023-05-10T03:59:29;12.30;99.90
53599;DHT22;39485;45.702;11.364;2023-05-10T04:01:55;12.20;99.90
53599;DHT22;39485;45.702;11.364;2023-05-10T04:04:21;12.20;99.90
53599;DHT22;39485;45.702;11.364;2023-05-10T04:06:47;12.20;99.90
53599;DHT22;39485;45.702;11.364;2023-05-10T04:09:13;12.20;99.90
53599;DHT22;39485;45.702;11.364;2023-05-10T04:11:39;12.10;99.90
53599;DHT22;39485;45.702;11.364;2023-05-10T04:14:04;12.10;99.90
53599;DHT22;39485;45.702;11.364;2023-05-10T04:16:30;12.10;99.90
53599;DHT22;39485;45.702;11.364;2023-05-10T04:18:56;12.10;99.90
53599;DHT22;39485;45.702;11.364;2023-05-10T04:21:21;12.10;99.90
53599;DHT22;39485;45.702;11.364;2023-05-10T04:23:47;12.20;99.90
53599;DHT22;39485;45.702;11.364;2023-05-10T04:26:13;12.20;99.90
53599;DHT22;39485;45.702;11.364;2023-05-10T04:28:39;12.20;99.90
53599;DHT22;39485;45.702;11.364;2023-05-10T04:31:06;12.20;99.90
53599;DHT22;39485;45.702;11.364;2023-05-10T04:33:32;12.20;99.90
53599;DHT22;39485;45.702;11.364;2023-05-10T04:35:59;12.20;99.90
53599;DHT22;39485;45.702;11.364;2023-05-10T04:38:24;12.10;99.90
53599;DHT22;39485;45.702;11.364;2023-05-10T04:40:50;12.10;99.90
53599;DHT22;39485;45.702;11.364;2023-05-10T04:43:16;12.00;99.90
53599;DHT22;39485;45.702;11.364;2023-05-10T04:45:42;12.00;99.90
53599;DHT22;39485;45.702;11.364;2023-05-10T04:48:07;12.00;99.90
53599;DHT22;39485;45.702;11.364;2023-05-10T04:50:33;12.00;99.90
53599;DHT22;39485;45.702;11.364;2023-05-10T04:52:59;11.90;99.90
53599;DHT22;39485;45.702;11.364;2023-05-10T04:55:24;11.90;99.90
53599;DHT22;39485;45.702;11.364;2023-05-10T04:57:51;11.80;99.90
53599;DHT22;39485;45.702;11.364;2023-05-10T05:00:17;11.80;99.90
53599;DHT22;39485;45.702;11.364;2023-05-10T05:02:44;11.80;99.90
53599;DHT22;39485;45.702;11.364;2023-05-10T05:05:12;11.70;99.90
53599;DHT22;39485;45.702;11.364;2023-05-10T05:07:38;11.70;99.90
53599;DHT22;39485;45.702;11.364;2023-05-10T05:10:06;11.70;99.90
53599;DHT22;39485;45.702;11.364;2023-05-10T05:12:32;11.70;99.90
53599;DHT22;39485;45.702;11.364;2023-05-10T05:14:58;11.60;99.90
53599;DHT22;39485;45.702;11.364;2023-05-10T05:17:23;11.60;99.90
53599;DHT22;39485;45.702;11.364;2023-05-10T05:19:49;11.60;99.90
53599;DHT22;39485;45.702;11.364;2023-05-10T05:22:15;11.60;99.90
53599;DHT22;39485;45.702;11.364;2023-05-10T05:24:40;11.60;99.90
53599;DHT22;39485;45.702;11.364;2023-05-10T05:27:06;11.60;99.90
53599;DHT22;39485;45.702;11.364;2023-05-10T05:29:32;11.60;99.90
53599;DHT22;39485;45.702;11.364;2023-05-10T05:31:58;11.50;99.90
53599;DHT22;39485;45.702;11.364;2023-05-10T05:34:23;11.50;99.90
53599;DHT22;39485;45.702;11.364;2023-05-10T05:36:50;11.50;99.90
53599;DHT22;39485;45.702;11.364;2023-05-10T05:39:15;11.50;99.90
53599;DHT22;39485;45.702;11.364;2023-05-10T05:41:41;11.50;99.90
53599;DHT22;39485;45.702;11.364;2023-05-10T05:44:07;11.50;99.90
53599;DHT22;39485;45.702;11.364;2023-05-10T05:46:33;11.50;99.90
53599;DHT22;39485;45.702;11.364;2023-05-10T05:48:58;11.50;99.90
53599;DHT22;39485;45.702;11.364;2023-05-10T05:51:24;11.50;99.90
53599;DHT22;39485;45.702;11.364;2023-05-10T05:53:50;11.50;99.90
53599;DHT22;39485;45.702;11.364;2023-05-10T05:56:16;11.50;99.90
53599;DHT22;39485;45.702;11.364;2023-05-10T05:58:43;11.50;99.90
53599;DHT22;39485;45.702;11.364;2023-05-10T06:01:09;11.50;99.90
53599;DHT22;39485;45.702;11.364;2023-05-10T06:03:35;11.50;99.90
53599;DHT22;39485;45.702;11.364;2023-05-10T06:06:00;11.50;99.90
53599;DHT22;39485;45.702;11.364;2023-05-10T06:08:26;11.60;99.90
53599;DHT22;39485;45.702;11.364;2023-05-10T06:10:52;11.60;99.90
53599;DHT22;39485;45.702;11.364;2023-05-10T06:13:17;11.60;99.90
53599;DHT22;39485;45.702;11.364;2023-05-10T06:15:43;11.60;99.90
53599;DHT22;39485;45.702;11.364;2023-05-10T06:18:09;11.60;99.90
53599;DHT22;39485;45.702;11.364;2023-05-10T06:20:34;11.60;99.90
53599;DHT22;39485;45.702;11.364;2023-05-10T06:23:00;11.70;99.90
53599;DHT22;39485;45.702;11.364;2023-05-10T06:25:26;11.70;99.90
53599;DHT22;39485;45.702;11.364;2023-05-10T06:27:51;11.70;99.90
53599;DHT22;39485;45.702;11.364;2023-05-10T06:30:22;11.70;99.90
53599;DHT22;39485;45.702;11.364;2023-05-10T06:32:52;11.70;99.90
53599;DHT22;39485;45.702;11.364;2023-05-10T06:35:19;11.80;99.90
53599;DHT22;39485;45.702;11.364;2023-05-10T06:37:44;11.80;99.90
53599;DHT22;39485;45.702;11.364;2023-05-10T06:40:10;11.80;99.90
53599;DHT22;39485;45.702;11.364;2023-05-10T06:42:36;11.80;99.90
53599;DHT22;39485;45.702;11.364;2023-05-10T06:45:02;11.80;99.90
53599;DHT22;39485;45.702;11.364;2023-05-10T06:47:27;11.80;99.90
53599;DHT22;39485;45.702;11.364;2023-05-10T06:49:53;11.90;99.90
53599;DHT22;39485;45.702;11.364;2023-05-10T06:52:19;11.80;99.90
53599;DHT22;39485;45.702;11.364;2023-05-10T06:54:44;11.90;99.90
53599;DHT22;39485;45.702;11.364;2023-05-10T06:57:10;11.80;99.90
53599;DHT22;39485;45.702;11.364;2023-05-10T06:59:36;11.80;99.90
53599;DHT22;39485;45.702;11.364;2023-05-10T07:02:02;11.80;99.90
53599;DHT22;39485;45.702;11.364;2023-05-10T07:04:27;11.80;99.90
53599;DHT22;39485;45.702;11.364;2023-05-10T07:06:53;11.90;99.90
53599;DHT22;39485;45.702;11.364;2023-05-10T07:09:18;11.90;99.90
53599;DHT22;39485;45.702;11.364;2023-05-10T07:11:44;11.90;99.90
53599;DHT22;39485;45.702;11.364;2023-05-10T07:14:10;11.80;99.90
53599;DHT22;39485;45.702;11.364;2023-05-10T07:16:36;11.80;99.90
53599;DHT22;39485;45.702;11.364;2023-05-10T07:19:01;11.80;99.90
53599;DHT22;39485;45.702;11.364;2023-05-10T07:21:27;11.70;99.90
53599;DHT22;39485;45.702;11.364;2023-05-10T07:23:54;11.70;99.90
53599;DHT22;39485;45.702;11.364;2023-05-10T07:26:20;11.80;99.90
53599;DHT22;39485;45.702;11.364;2023-05-10T07:28:47;11.70;99.90
53599;DHT22;39485;45.702;11.364;2023-05-10T07:31:35;11.80;99.90
53599;DHT22;39485;45.702;11.364;2023-05-10T07:34:01;11.80;99.90
53599;DHT22;39485;45.702;11.364;2023-05-10T07:36:29;11.70;99.90
53599;DHT22;39485;45.702;11.364;2023-05-10T08:23:58;11.80;99.90
53599;DHT22;39485;45.702;11.364;2023-05-10T08:26:24;11.90;99.90
53599;DHT22;39485;45.702;11.364;2023-05-10T08:28:50;11.80;99.90
53599;DHT22;39485;45.702;11.364;2023-05-10T08:31:16;11.90;99.90
53599;DHT22;39485;45.702;11.364;2023-05-10T08:33:41;11.90;99.90
53599;DHT22;39485;45.702;11.364;2023-05-10T08:36:07;11.90;99.90
53599;DHT22;39485;45.702;11.364;2023-05-10T08:38:33;11.80;99.90
53599;DHT22;39485;45.702;11.364;2023-05-10T08:40:59;11.90;99.90
53599;DHT22;39485;45.702;11.364;2023-05-10T08:43:28;11.90;99.90
53599;DHT22;39485;45.702;11.364;2023-05-10T08:46:00;11.90;99.90
53599;DHT22;39485;45.702;11.364;2023-05-10T08:48:29;11.90;99.90
53599;DHT22;39485;45.702;11.364;2023-05-10T08:50:57;11.90;99.90
53599;DHT22;39485;45.702;11.364;2023-05-10T08:53:24;11.90;99.90
53599;DHT22;39485;45.702;11.364;2023-05-10T08:55:52;11.90;99.90
53599;DHT22;39485;45.702;11.364;2023-05-10T08:58:19;12.00;99.90
53599;DHT22;39485;45.702;11.364;2023-05-10T09:00:45;12.00;99.90
53599;DHT22;39485;45.702;11.364;2023-05-10T09:03:11;12.00;99.90
53599;DHT22;39485;45.702;11.364;2023-05-10T09:05:37;12.00;99.90
53599;DHT22;39485;45.702;11.364;2023-05-10T09:08:03;12.00;99.90
53599;DHT22;39485;45.702;11.364;2023-05-10T09:10:29;12.10;99.90
53599;DHT22;39485;45.702;11.364;2023-05-10T09:12:59;12.00;99.90
53599;DHT22;39485;45.702;11.364;2023-05-10T09:15:24;12.00;99.90
53599;DHT22;39485;45.702;11.364;2023-05-10T09:17:50;12.00;99.90
53599;DHT22;39485;45.702;11.364;2023-05-10T09:20:16;12.00;99.90
53599;DHT22;39485;45.702;11.364;2023-05-10T09:22:45;12.00;99.90
53599;DHT22;39485;45.702;11.364;2023-05-10T09:25:15;12.10;99.90
53599;DHT22;39485;45.702;11.364;2023-05-10T09:27:45;12.00;99.90
53599;DHT22;39485;45.702;11.364;2023-05-10T09:30:27;12.10;99.90
53599;DHT22;39485;45.702;11.364;2023-05-10T09:32:55;12.10;99.90
53599;DHT22;39485;45.702;11.364;2023-05-10T09:35:25;12.10;99.90
53599;DHT22;39485;45.702;11.364;2023-05-10T09:37:53;12.00;99.90
53599;DHT22;39485;45.702;11.364;2023-05-10T09:40:24;12.10;99.90
53599;DHT22;39485;45.702;11.364;2023-05-10T09:43:05;12.10;99.90
53599;DHT22;39485;45.702;11.364;2023-05-10T09:45:32;12.10;99.90
53599;DHT22;39485;45.702;11.364;2023-05-10T09:47:59;12.10;99.90
53599;DHT22;39485;45.702;11.364;2023-05-10T09:50:26;12.10;99.90
53599;DHT22;39485;45.702;11.364;2023-05-10T09:52:57;12.10;99.90
53599;DHT22;39485;45.702;11.364;2023-05-10T09:55:38;12.20;99.90
53599;DHT22;39485;45.702;11.364;2023-05-10T09:58:04;12.20;99.90
53599;DHT22;39485;45.702;11.364;2023-05-10T10:00:52;12.20;99.90
53599;DHT22;39485;45.702;11.364;2023-05-10T10:42:04;12.40;99.90
53599;DHT22;39485;45.702;11.364;2023-05-10T11:01:16;12.50;99.90
53599;DHT22;39485;45.702;11.364;2023-05-10T11:06:35;12.40;99.90
53599;DHT22;39485;45.702;11.364;2023-05-10T11:09:09;12.40;99.90
53599;DHT22;39485;45.702;11.364;2023-05-10T11:11:35;12.40;99.90
53599;DHT22;39485;45.702;11.364;2023-05-10T11:14:06;12.50;99.90
53599;DHT22;39485;45.702;11.364;2023-05-10T11:16:44;12.50;99.90
53599;DHT22;39485;45.702;11.364;2023-05-10T11:19:11;12.50;99.90
53599;DHT22;39485;45.702;11.364;2023-05-10T11:21:52;12.50;99.90
53599;DHT22;39485;45.702;11.364;2023-05-10T11:24:37;12.50;99.90
53599;DHT22;39485;45.702;11.364;2023-05-10T11:27:02;12.50;99.90
53599;DHT22;39485;45.702;11.364;2023-05-10T11:29:28;12.50;99.90
53599;DHT22;39485;45.702;11.364;2023-05-10T11:31:57;12.50;99.90
53599;DHT22;39485;45.702;11.364;2023-05-10T11:34:30;12.50;99.90
53599;DHT22;39485;45.702;11.364;2023-05-10T11:36:57;12.40;99.90
53599;DHT22;39485;45.702;11.364;2023-05-10T11:39:30;12.40;99.90
53599;DHT22;39485;45.702;11.364;2023-05-10T11:41:57;12.40;99.90
53599;DHT22;39485;45.702;11.364;2023-05-10T11:44:24;12.40;99.90
53599;DHT22;39485;45.702;11.364;2023-05-10T11:46:54;12.40;99.90
53599;DHT22;39485;45.702;11.364;2023-05-10T11:49:20;12.40;99.90
53599;DHT22;39485;45.702;11.364;2023-05-10T11:51:48;12.40;99.90
53599;DHT22;39485;45.702;11.364;2023-05-10T11:54:13;12.40;99.90
53599;DHT22;39485;45.702;11.364;2023-05-10T11:56:40;12.40;99.90
53599;DHT22;39485;45.702;11.364;2023-05-10T11:59:06;12.40;99.90
53599;DHT22;39485;45.702;11.364;2023-05-10T12:01:32;12.40;99.90
53599;DHT22;39485;45.702;11.364;2023-05-10T12:03:58;12.40;99.90
53599;DHT22;39485;45.702;11.364;2023-05-10T12:06:30;12.40;99.90
53599;DHT22;39485;45.702;11.364;2023-05-10T12:08:56;12.50;99.90
53599;DHT22;39485;45.702;11.364;2023-05-10T12:11:25;12.50;99.90
53599;DHT22;39485;45.702;11.364;2023-05-10T12:13:52;12.50;99.90
53599;DHT22;39485;45.702;11.364;2023-05-10T12:16:21;12.50;99.90
53599;DHT22;39485;45.702;11.364;2023-05-10T12:18:51;12.50;99.90
53599;DHT22;39485;45.702;11.364;2023-05-10T12:21:18;12.50;99.90
53599;DHT22;39485;45.702;11.364;2023-05-10T12:23:50;12.50;99.90
53599;DHT22;39485;45.702;11.364;2023-05-10T12:26:16;12.60;99.90
53599;DHT22;39485;45.702;11.364;2023-05-10T12:28:42;12.60;99.90
53599;DHT22;39485;45.702;11.364;2023-05-10T12:31:08;12.60;99.90
53599;DHT22;39485;45.702;11.364;2023-05-10T12:33:38;12.60;99.90
53599;DHT22;39485;45.702;11.364;2023-05-10T12:36:05;12.60;99.90
53599;DHT22;39485;45.702;11.364;2023-05-10T12:38:36;12.60;99.90
53599;DHT22;39485;45.702;11.364;2023-05-10T12:41:05;12.50;99.90
53599;DHT22;39485;45.702;11.364;2023-05-10T12:43:32;12.60;99.90
53599;DHT22;39485;45.702;11.364;2023-05-10T12:45:58;12.60;99.90
53599;DHT22;39485;45.702;11.364;2023-05-10T12:48:23;12.60;99.90
53599;DHT22;39485;45.702;11.364;2023-05-10T12:50:49;12.50;99.90
53599;DHT22;39485;45.702;11.364;2023-05-10T12:53:15;12.60;99.90
53599;DHT22;39485;45.702;11.364;2023-05-10T12:55:44;12.50;99.90
53599;DHT22;39485;45.702;11.364;2023-05-10T12:58:10;12.60;99.90
53599;DHT22;39485;45.702;11.364;2023-05-10T13:00:36;12.50;99.90
53599;DHT22;39485;45.702;11.364;2023-05-10T13:03:04;12.50;99.90
53599;DHT22;39485;45.702;11.364;2023-05-10T13:05:34;12.50;99.90
53599;DHT22;39485;45.702;11.364;2023-05-10T13:08:00;12.60;99.90
53599;DHT22;39485;45.702;11.364;2023-05-10T13:10:25;12.60;99.90
53599;DHT22;39485;45.702;11.364;2023-05-10T13:12:51;12.50;99.90
53599;DHT22;39485;45.702;11.364;2023-05-10T13:15:17;12.60;99.90
53599;DHT22;39485;45.702;11.364;2023-05-10T13:17:43;12.60;99.90
53599;DHT22;39485;45.702;11.364;2023-05-10T13:20:09;12.60;99.90
53599;DHT22;39485;45.702;11.364;2023-05-10T13:22:35;12.60;99.90
53599;DHT22;39485;45.702;11.364;2023-05-10T13:25:01;12.60;99.90
53599;DHT22;39485;45.702;11.364;2023-05-10T13:27:27;12.60;99.90
53599;DHT22;39485;45.702;11.364;2023-05-10T13:29:53;12.60;99.90
53599;DHT22;39485;45.702;11.364;2023-05-10T13:32:20;12.60;99.90
53599;DHT22;39485;45.702;11.364;2023-05-10T13:34:46;12.50;99.90
53599;DHT22;39485;45.702;11.364;2023-05-10T13:37:11;12.50;99.90
53599;DHT22;39485;45.702;11.364;2023-05-10T13:39:37;12.50;99.90
53599;DHT22;39485;45.702;11.364;2023-05-10T13:42:03;12.50;99.90
53599;DHT22;39485;45.702;11.364;2023-05-10T13:44:29;12.60;99.90
53599;DHT22;39485;45.702;11.364;2023-05-10T13:46:56;12.50;99.90
53599;DHT22;39485;45.702;11.364;2023-05-10T13:49:22;12.50;99.90
53599;DHT22;39485;45.702;11.364;2023-05-10T13:51:47;12.60;99.90
53599;DHT22;39485;45.702;11.364;2023-05-10T13:54:13;12.50;99.90
53599;DHT22;39485;45.702;11.364;2023-05-10T13:56:40;12.50;99.90
53599;DHT22;39485;45.702;11.364;2023-05-10T13:59:06;12.50;99.90
53599;DHT22;39485;45.702;11.364;2023-05-10T14:01:33;12.50;99.90
53599;DHT22;39485;45.702;11.364;2023-05-10T14:03:59;12.50;99.90
53599;DHT22;39485;45.702;11.364;2023-05-10T14:06:25;12.50;99.90
53599;DHT22;39485;45.702;11.364;2023-05-10T14:08:50;12.50;99.90
53599;DHT22;39485;45.702;11.364;2023-05-10T14:11:16;12.50;99.90
53599;DHT22;39485;45.702;11.364;2023-05-10T14:13:42;12.60;99.90
53599;DHT22;39485;45.702;11.364;2023-05-10T14:16:08;12.50;99.90
53599;DHT22;39485;45.702;11.364;2023-05-10T14:25:13;12.60;99.90
53599;DHT22;39485;45.702;11.364;2023-05-10T14:39:12;12.60;99.90
53599;DHT22;39485;45.702;11.364;2023-05-10T14:41:38;12.70;99.90
53599;DHT22;39485;45.702;11.364;2023-05-10T14:44:24;12.70;99.90
53599;DHT22;39485;45.702;11.364;2023-05-10T14:46:50;12.70;99.90
53599;DHT22;39485;45.702;11.364;2023-05-10T14:49:16;12.70;99.90
53599;DHT22;39485;45.702;11.364;2023-05-10T14:51:42;12.70;99.90
53599;DHT22;39485;45.702;11.364;2023-05-10T14:54:07;12.70;99.90
53599;DHT22;39485;45.702;11.364;2023-05-10T14:56:33;12.80;99.90
53599;DHT22;39485;45.702;11.364;2023-05-10T14:58:59;12.80;99.90
53599;DHT22;39485;45.702;11.364;2023-05-10T15:01:25;12.80;99.90
53599;DHT22;39485;45.702;11.364;2023-05-10T15:03:51;12.80;99.90
53599;DHT22;39485;45.702;11.364;2023-05-10T15:06:17;12.80;99.90
53599;DHT22;39485;45.702;11.364;2023-05-10T15:08:42;12.90;99.90
53599;DHT22;39485;45.702;11.364;2023-05-10T15:14:49;12.90;99.90
53599;DHT22;39485;45.702;11.364;2023-05-10T15:17:34;12.90;99.90
53599;DHT22;39485;45.702;11.364;2023-05-10T15:20:00;12.90;99.90
53599;DHT22;39485;45.702;11.364;2023-05-10T15:22:28;12.90;99.90
53599;DHT22;39485;45.702;11.364;2023-05-10T15:24:54;12.90;99.90
53599;DHT22;39485;45.702;11.364;2023-05-10T15:27:20;12.90;99.90
53599;DHT22;39485;45.702;11.364;2023-05-10T15:29:45;12.90;99.90
53599;DHT22;39485;45.702;11.364;2023-05-10T15:32:11;12.90;99.90
53599;DHT22;39485;45.702;11.364;2023-05-10T15:34:40;12.90;99.90
53599;DHT22;39485;45.702;11.364;2023-05-10T15:37:11;12.90;99.90
53599;DHT22;39485;45.702;11.364;2023-05-10T15:46:37;12.90;99.90
53599;DHT22;39485;45.702;11.364;2023-05-10T15:49:14;12.90;99.90
53599;DHT22;39485;45.702;11.364;2023-05-10T15:51:40;12.90;99.90
53599;DHT22;39485;45.702;11.364;2023-05-10T15:54:06;12.90;99.90
53599;DHT22;39485;45.702;11.364;2023-05-10T15:56:32;12.90;99.90
53599;DHT22;39485;45.702;11.364;2023-05-10T16:01:53;12.90;99.90
53599;DHT22;39485;45.702;11.364;2023-05-10T16:04:19;12.90;99.90
53599;DHT22;39485;45.702;11.364;2023-05-10T16:06:45;12.90;99.90
53599;DHT22;39485;45.702;11.364;2023-05-10T16:13:15;12.90;99.90
53599;DHT22;39485;45.702;11.364;2023-05-10T16:16:01;12.90;99.90
53599;DHT22;39485;45.702;11.364;2023-05-10T16:18:52;12.90;99.90
53599;DHT22;39485;45.702;11.364;2023-05-10T16:21:46;12.90;99.90
53599;DHT22;39485;45.702;11.364;2023-05-10T16:24:14;12.90;99.90
53599;DHT22;39485;45.702;11.364;2023-05-10T16:27:06;12.90;99.90
53599;DHT22;39485;45.702;11.364;2023-05-10T16:40:19;12.80;99.90
53599;DHT22;39485;45.702;11.364;2023-05-10T16:46:22;12.80;99.90
53599;DHT22;39485;45.702;11.364;2023-05-10T16:49:19;12.80;99.90
53599;DHT22;39485;45.702;11.364;2023-05-10T16:52:21;12.80;99.90
53599;DHT22;39485;45.702;11.364;2023-05-10T16:54:59;12.70;99.90
53599;DHT22;39485;45.702;11.364;2023-05-10T16:57:29;12.70;99.90
53599;DHT22;39485;45.702;11.364;2023-05-10T16:59:55;12.70;99.90
53599;DHT22;39485;45.702;11.364;2023-05-10T17:02:21;12.70;99.90
53599;DHT22;39485;45.702;11.364;2023-05-10T17:04:47;12.70;99.90
53599;DHT22;39485;45.702;11.364;2023-05-10T17:07:13;12.60;99.90
53599;DHT22;39485;45.702;11.364;2023-05-10T17:09:41;12.60;99.90
53599;DHT22;39485;45.702;11.364;2023-05-10T17:12:07;12.60;99.90
53599;DHT22;39485;45.702;11.364;2023-05-10T17:14:35;12.50;99.90
53599;DHT22;39485;45.702;11.364;2023-05-10T17:17:04;12.50;99.90
53599;DHT22;39485;45.702;11.364;2023-05-10T17:19:29;12.50;99.90
53599;DHT22;39485;45.702;11.364;2023-05-10T17:21:58;12.40;99.90
53599;DHT22;39485;45.702;11.364;2023-05-10T17:24:24;12.50;99.90
53599;DHT22;39485;45.702;11.364;2023-05-10T17:27:32;12.40;99.90
53599;DHT22;39485;45.702;11.364;2023-05-10T17:30:30;12.40;99.90
53599;DHT22;39485;45.702;11.364;2023-05-10T17:33:36;12.40;99.90
53599;DHT22;39485;45.702;11.364;2023-05-10T17:39:45;12.40;99.90
53599;DHT22;39485;45.702;11.364;2023-05-10T17:42:11;12.30;99.90
53599;DHT22;39485;45.702;11.364;2023-05-10T17:44:37;12.30;99.90
53599;DHT22;39485;45.702;11.364;2023-05-10T17:47:02;12.30;99.90
53599;DHT22;39485;45.702;11.364;2023-05-10T17:49:28;12.30;99.90
53599;DHT22;39485;45.702;11.364;2023-05-10T17:51:54;12.20;99.90
53599;DHT22;39485;45.702;11.364;2023-05-10T17:54:20;12.30;99.90
53599;DHT22;39485;45.702;11.364;2023-05-10T17:56:45;12.30;99.90
53599;DHT22;39485;45.702;11.364;2023-05-10T17:59:11;12.30;99.90
53599;DHT22;39485;45.702;11.364;2023-05-10T18:01:36;12.30;99.90
53599;DHT22;39485;45.702;11.364;2023-05-10T18:04:02;12.30;99.90
53599;DHT22;39485;45.702;11.364;2023-05-10T18:06:28;12.30;99.90
53599;DHT22;39485;45.702;11.364;2023-05-10T18:08:54;12.30;99.90
53599;DHT22;39485;45.702;11.364;2023-05-10T18:11:20;12.30;99.90
53599;DHT22;39485;45.702;11.364;2023-05-10T18:13:46;12.30;99.90
53599;DHT22;39485;45.702;11.364;2023-05-10T18:16:12;12.30;99.90
53599;DHT22;39485;45.702;11.364;2023-05-10T18:18:37;12.40;99.90